Time;durP1;ratioP1;P1;durP2;ratioP2;P2;SDS_P1;SDS_P2;PMS_P1;PMS_P2;Temp;Humidity;BMP_temperature;BMP_pressure;BME280_temperature;BME280_humidity;BME280_pressure;Samples;Min_cycle;Max_cycle;Signal;HPM_P1;HPM_P2
2021/03/16 00:02:27;;;;;;;5.80;3.10;;;6.60;96.30;;;;;;4922136;29;20533;-89
2021/03/16 00:04:53;;;;;;;4.83;3.43;;;6.60;96.30;;;;;;4919648;29;20541;-88
2021/03/16 00:07:24;;;;;;;7.50;3.20;;;6.60;96.50;;;;;;4936642;29;20455;-93
2021/03/16 00:09:52;;;;;;;4.97;3.20;;;6.60;96.60;;;;;;4936343;29;20462;-91
2021/03/16 00:12:25;;;;;;;11.63;3.77;;;6.60;96.60;;;;;;4928842;29;21030;-90
2021/03/16 00:14:51;;;;;;;6.37;3.57;;;6.60;96.70;;;;;;4908808;29;20460;-90
2021/03/16 00:17:20;;;;;;;5.83;2.90;;;6.60;96.80;;;;;;4921979;29;20498;-90
2021/03/16 00:19:50;;;;;;;9.80;3.33;;;6.60;96.90;;;;;;4926780;29;20514;-90
2021/03/16 00:22:17;;;;;;;4.67;2.77;;;6.60;96.90;;;;;;4912586;29;20463;-90
2021/03/16 00:24:44;;;;;;;7.53;3.03;;;6.50;96.90;;;;;;4915441;29;20507;-90
2021/03/16 00:27:11;;;;;;;5.83;4.07;;;6.50;96.90;;;;;;4930645;29;20470;-90
2021/03/16 00:29:39;;;;;;;6.00;3.20;;;6.50;96.90;;;;;;4919242;29;20971;-91
2021/03/16 00:32:07;;;;;;;4.83;3.00;;;6.50;96.90;;;;;;4932589;29;20446;-93
2021/03/16 00:34:34;;;;;;;7.97;3.00;;;6.50;97.00;;;;;;4934197;29;20458;-92
2021/03/16 00:37:01;;;;;;;3.00;2.33;;;6.50;96.90;;;;;;4929982;29;20966;-91
2021/03/16 00:39:28;;;;;;;10.90;6.10;;;6.50;96.90;;;;;;4928772;29;20513;-90
2021/03/16 00:41:54;;;;;;;6.63;2.97;;;6.50;97.10;;;;;;4927916;29;20465;-91
2021/03/16 00:44:21;;;;;;;6.30;3.60;;;6.60;97.00;;;;;;4917683;29;20455;-91
2021/03/16 00:46:49;;;;;;;5.90;2.80;;;6.60;96.60;;;;;;4925843;29;20451;-90
2021/03/16 00:49:16;;;;;;;3.43;3.07;;;6.60;96.60;;;;;;4921293;29;20478;-91
2021/03/16 00:51:43;;;;;;;5.20;4.00;;;6.60;96.40;;;;;;4921485;29;20471;-91
2021/03/16 00:54:10;;;;;;;6.13;3.60;;;6.60;96.20;;;;;;4915454;29;20471;-91
2021/03/16 00:56:36;;;;;;;5.53;2.80;;;6.60;96.10;;;;;;4912485;29;20467;-90
2021/03/16 00:59:06;;;;;;;3.80;3.40;;;6.60;96.30;;;;;;4909425;29;20483;-90
2021/03/16 01:01:33;;;;;;;6.20;3.10;;;6.60;96.40;;;;;;4909136;29;20483;-91
2021/03/16 01:04:01;;;;;;;3.00;2.70;;;6.60;96.50;;;;;;4919267;29;20463;-91
2021/03/16 01:06:28;;;;;;;6.90;3.20;;;6.60;96.10;;;;;;4915078;29;20448;-91
2021/03/16 01:08:54;;;;;;;5.70;3.53;;;6.60;96.00;;;;;;4908391;29;20480;-91
2021/03/16 01:11:21;;;;;;;6.60;3.37;;;6.50;95.90;;;;;;4906256;29;20907;-91
2021/03/16 01:13:47;;;;;;;4.00;2.60;;;6.50;95.80;;;;;;4899436;29;20515;-91
2021/03/16 01:16:14;;;;;;;3.60;2.33;;;6.50;95.60;;;;;;4886686;29;21220;-91
2021/03/16 01:18:42;;;;;;;5.77;3.00;;;6.40;95.50;;;;;;4886018;29;20583;-91
2021/03/16 01:21:11;;;;;;;7.07;2.87;;;6.40;95.50;;;;;;4898873;29;20518;-91
2021/03/16 01:23:38;;;;;;;5.70;2.60;;;6.30;95.60;;;;;;4909971;29;20972;-91
2021/03/16 01:26:08;;;;;;;5.40;2.97;;;6.30;95.50;;;;;;4922507;29;20468;-91
2021/03/16 01:28:36;;;;;;;4.83;2.73;;;6.30;95.60;;;;;;4922579;29;20495;-91
2021/03/16 01:31:03;;;;;;;4.90;3.20;;;6.30;95.50;;;;;;4922048;29;20439;-91
2021/03/16 01:33:33;;;;;;;3.53;2.63;;;6.40;95.40;;;;;;4910707;29;20436;-90
2021/03/16 01:36:00;;;;;;;3.80;2.90;;;6.40;95.50;;;;;;4909020;29;20469;-91
2021/03/16 01:38:27;;;;;;;9.20;3.10;;;6.40;95.40;;;;;;4924326;29;20483;-90
2021/03/16 01:40:54;;;;;;;3.60;2.53;;;6.40;95.30;;;;;;4914362;29;20486;-91
2021/03/16 01:43:25;;;;;;;5.27;2.83;;;6.40;95.20;;;;;;4906609;29;20467;-92
2021/03/16 01:45:52;;;;;;;4.40;2.67;;;6.40;95.20;;;;;;4907267;29;20884;-92
2021/03/16 01:48:26;;;;;;;5.87;3.20;;;6.40;95.20;;;;;;4909161;29;20907;-91
2021/03/16 01:50:54;;;;;;;6.97;3.53;;;6.40;95.50;;;;;;4923958;29;20456;-90
2021/03/16 01:53:22;;;;;;;4.43;4.00;;;6.40;95.70;;;;;;4910366;29;20499;-90
2021/03/16 01:55:53;;;;;;;8.63;3.53;;;6.40;96.00;;;;;;4910963;29;20434;-89
2021/03/16 01:58:20;;;;;;;4.83;2.70;;;6.40;96.10;;;;;;4910493;29;20940;-90
2021/03/16 02:00:46;;;;;;;4.30;3.13;;;6.40;96.20;;;;;;4892597;29;20480;-90
2021/03/16 02:03:14;;;;;;;7.50;3.67;;;6.40;96.50;;;;;;4888148;29;20480;-90
2021/03/16 02:05:43;;;;;;;5.17;3.17;;;6.30;96.60;;;;;;4890697;29;20480;-90
2021/03/16 02:08:17;;;;;;;7.20;3.30;;;6.30;96.80;;;;;;4901219;29;20440;-92
2021/03/16 02:11:06;;;;;;;5.50;3.53;;;6.40;96.90;;;;;;4900948;29;20514;-92
2021/03/16 02:13:39;;;;;;;9.13;3.87;;;6.30;96.90;;;;;;4887991;29;20464;-92
2021/03/16 02:16:14;;;;;;;4.87;3.10;;;6.30;97.20;;;;;;4891706;29;20595;-92
2021/03/16 02:18:50;;;;;;;4.47;3.90;;;6.30;97.20;;;;;;4903050;29;20483;-91
2021/03/16 02:21:25;;;;;;;10.33;3.00;;;6.30;97.40;;;;;;4913433;29;20511;-91
2021/03/16 02:24:24;;;;;;;4.87;3.13;;;6.30;97.40;;;;;;4920808;29;20518;-92
2021/03/16 02:27:09;;;;;;;5.33;2.97;;;6.20;97.60;;;;;;4918791;29;20466;-92
2021/03/16 02:29:51;;;;;;;5.07;3.00;;;6.20;97.50;;;;;;4914788;29;20487;-91
2021/03/16 02:32:23;;;;;;;5.03;3.30;;;6.20;97.60;;;;;;4918990;29;20450;-92
2021/03/16 02:34:53;;;;;;;7.63;4.20;;;6.20;97.50;;;;;;4924428;29;20481;-92
2021/03/16 02:37:26;;;;;;;4.90;3.37;;;6.20;97.30;;;;;;4923136;29;20440;-90
2021/03/16 02:39:54;;;;;;;9.00;4.33;;;6.20;97.40;;;;;;4923322;29;20511;-92
2021/03/16 02:42:23;;;;;;;5.00;3.20;;;6.20;97.50;;;;;;4916129;29;20452;-91
2021/03/16 02:44:53;;;;;;;7.40;3.70;;;6.20;97.80;;;;;;4922222;29;20438;-92
2021/03/16 02:47:21;;;;;;;5.87;3.77;;;6.20;97.80;;;;;;4922014;29;20459;-91
2021/03/16 02:49:49;;;;;;;5.73;3.30;;;6.20;97.70;;;;;;4909511;29;20476;-90
2021/03/16 02:52:16;;;;;;;6.53;3.23;;;6.10;97.60;;;;;;4908047;29;20522;-91
2021/03/16 02:54:47;;;;;;;6.00;3.17;;;6.10;97.80;;;;;;4911889;29;21013;-90
2021/03/16 02:57:16;;;;;;;4.40;3.53;;;6.20;98.00;;;;;;4909700;29;20944;-91
2021/03/16 02:59:44;;;;;;;5.57;3.27;;;6.10;98.00;;;;;;4910614;29;20487;-90
2021/03/16 03:02:13;;;;;;;5.30;3.13;;;6.10;98.20;;;;;;4908334;29;20479;-90
2021/03/16 03:04:42;;;;;;;5.53;2.70;;;6.00;99.20;;;;;;4920233;29;20467;-91
2021/03/16 03:07:11;;;;;;;10.67;3.90;;;5.90;99.40;;;;;;4919230;29;20610;-90
2021/03/16 03:09:38;;;;;;;4.10;3.57;;;5.80;99.90;;;;;;4921566;29;20463;-92
2021/03/16 03:12:10;;;;;;;10.30;3.97;;;5.80;99.90;;;;;;4959470;23;20615;-87
2021/03/16 03:14:38;;;;;;;9.10;3.87;;;5.70;99.90;;;;;;4957402;28;20528;-87
2021/03/16 03:17:16;;;;;;;9.97;2.80;;;5.70;99.90;;;;;;4956786;28;20532;-87
2021/03/16 03:19:47;;;;;;;3.80;3.33;;;5.70;99.90;;;;;;4956218;28;20456;-88
2021/03/16 03:22:24;;;;;;;4.53;3.03;;;5.80;99.90;;;;;;4940445;29;20481;-87
2021/03/16 03:24:58;;;;;;;4.63;3.17;;;5.80;99.90;;;;;;4947724;29;20441;-86
2021/03/16 03:27:36;;;;;;;7.37;3.27;;;5.80;99.90;;;;;;4941348;29;20966;-87
2021/03/16 03:30:05;;;;;;;5.70;3.43;;;5.90;99.90;;;;;;4938101;29;20453;-87
2021/03/16 03:32:34;;;;;;;5.50;3.27;;;5.90;99.80;;;;;;4937326;29;20458;-87
2021/03/16 03:35:08;;;;;;;6.83;3.30;;;5.90;99.20;;;;;;4937489;29;20489;-87
2021/03/16 03:37:36;;;;;;;7.73;2.87;;;5.90;99.20;;;;;;4937345;29;20958;-87
2021/03/16 03:40:05;;;;;;;7.20;3.13;;;5.90;99.30;;;;;;4936995;29;20482;-87
2021/03/16 03:42:40;;;;;;;6.77;2.33;;;5.80;99.80;;;;;;4950075;29;20499;-87
2021/03/16 03:45:09;;;;;;;4.73;2.67;;;5.80;99.90;;;;;;4949391;29;21031;-86
2021/03/16 03:47:46;;;;;;;3.90;3.10;;;5.70;99.90;;;;;;4936972;29;20465;-86
2021/03/16 03:50:20;;;;;;;6.90;2.73;;;5.70;99.90;;;;;;4937598;29;20453;-86
2021/03/16 03:52:51;;;;;;;3.77;3.17;;;5.50;99.90;;;;;;4937479;29;20457;-86
2021/03/16 03:55:21;;;;;;;8.17;3.20;;;5.50;99.90;;;;;;4941165;29;20461;-86
2021/03/16 03:57:53;;;;;;;5.63;3.50;;;5.50;99.90;;;;;;4959944;29;20467;-85
2021/03/16 04:00:29;;;;;;;9.50;3.37;;;5.50;99.90;;;;;;4956986;29;20458;-85
2021/03/16 04:03:00;;;;;;;9.07;3.40;;;5.50;99.90;;;;;;4947123;29;20875;-85
2021/03/16 04:05:33;;;;;;;6.10;2.70;;;5.60;99.90;;;;;;4939167;29;20867;-86
2021/03/16 04:08:11;;;;;;;5.83;3.63;;;5.60;99.90;;;;;;4938515;29;20758;-85
2021/03/16 04:10:46;;;;;;;6.03;4.30;;;5.60;99.70;;;;;;4938476;29;20473;-85
2021/03/16 04:13:19;;;;;;;6.30;3.60;;;5.70;99.60;;;;;;4937415;29;20460;-85
2021/03/16 04:15:46;;;;;;;9.00;3.30;;;5.70;99.50;;;;;;4937031;29;20805;-85
2021/03/16 04:18:18;;;;;;;7.90;3.00;;;5.70;99.30;;;;;;4936891;29;20452;-86
2021/03/16 04:20:54;;;;;;;5.63;3.23;;;5.70;99.40;;;;;;4957387;29;20503;-85
2021/03/16 04:23:23;;;;;;;6.37;3.30;;;5.70;99.40;;;;;;4945075;29;20437;-86
2021/03/16 04:25:59;;;;;;;6.90;3.03;;;5.70;99.40;;;;;;4954107;29;20454;-85
2021/03/16 04:28:33;;;;;;;8.83;3.10;;;5.60;99.90;;;;;;4955158;29;20468;-86
2021/03/16 04:31:08;;;;;;;8.37;2.93;;;5.50;99.90;;;;;;4936280;29;20575;-86
2021/03/16 04:33:37;;;;;;;5.13;3.63;;;5.30;99.90;;;;;;4939135;29;20471;-86
2021/03/16 04:36:27;;;;;;;8.83;3.40;;;5.20;99.90;;;;;;4937236;29;20450;-86
2021/03/16 04:38:56;;;;;;;8.07;3.77;;;5.20;99.90;;;;;;4946143;29;20484;-85
2021/03/16 04:41:27;;;;;;;5.37;3.07;;;5.10;99.90;;;;;;4954826;29;20994;-85
2021/03/16 04:43:54;;;;;;;5.80;2.90;;;5.10;99.90;;;;;;4955712;29;20441;-85
2021/03/16 04:46:23;;;;;;;7.20;2.80;;;5.00;99.90;;;;;;4955890;29;20457;-85
2021/03/16 04:48:50;;;;;;;5.57;3.17;;;5.10;99.90;;;;;;4951632;29;20453;-85
2021/03/16 04:51:19;;;;;;;4.63;3.13;;;5.00;99.90;;;;;;4948478;29;20500;-85
2021/03/16 04:53:48;;;;;;;7.93;3.00;;;5.00;99.90;;;;;;4955704;29;20890;-86
2021/03/16 04:56:23;;;;;;;6.37;3.47;;;5.00;99.90;;;;;;4956351;29;20461;-85
2021/03/16 04:58:49;;;;;;;7.90;3.13;;;5.00;99.90;;;;;;4953341;29;20461;-86
2021/03/16 05:01:16;;;;;;;11.47;2.80;;;4.90;99.90;;;;;;4936405;29;20503;-86
2021/03/16 05:03:43;;;;;;;5.90;3.23;;;4.90;99.90;;;;;;4936666;29;20434;-86
2021/03/16 05:06:09;;;;;;;3.43;2.80;;;4.90;99.90;;;;;;4936410;29;20480;-86
2021/03/16 05:08:42;;;;;;;3.73;3.03;;;4.90;99.90;;;;;;4936303;29;20495;-86
2021/03/16 05:11:11;;;;;;;6.83;2.70;;;4.90;99.90;;;;;;4938663;29;20499;-87
2021/03/16 05:13:40;;;;;;;9.37;3.33;;;4.90;99.90;;;;;;4940930;29;20437;-87
2021/03/16 05:16:21;;;;;;;8.70;3.73;;;4.90;99.90;;;;;;4940837;29;20448;-86
2021/03/16 05:18:49;;;;;;;12.67;2.83;;;4.90;99.90;;;;;;4960317;29;20460;-87
2021/03/16 05:21:26;;;;;;;3.40;2.33;;;4.90;99.90;;;;;;4962159;29;20489;-86
2021/03/16 05:23:59;;;;;;;9.43;3.17;;;4.90;99.90;;;;;;4941750;29;20457;-86
2021/03/16 05:26:28;;;;;;;5.27;2.90;;;4.90;99.90;;;;;;4944974;29;20887;-86
2021/03/16 05:29:03;;;;;;;6.90;3.03;;;4.90;99.90;;;;;;4962261;28;20448;-87
2021/03/16 05:31:51;;;;;;;5.17;2.50;;;4.90;99.90;;;;;;4955830;28;20468;-85
2021/03/16 05:34:25;;;;;;;4.47;2.70;;;5.00;99.90;;;;;;4950682;28;20512;-84
2021/03/16 05:40:00;;;;;;;9.80;3.10;;;5.10;99.90;;;;;;4938145;29;20887;-86
2021/03/16 05:42:29;;;;;;;5.40;2.70;;;5.10;99.90;;;;;;4949546;28;20476;-86
2021/03/16 05:45:03;;;;;;;7.33;2.90;;;5.10;99.90;;;;;;4939475;29;20469;-86
2021/03/16 05:51:10;;;;;;;9.87;2.67;;;5.20;99.90;;;;;;4894792;29;20465;-85
2021/03/16 05:53:42;;;;;;;7.50;3.50;;;5.20;99.90;;;;;;4941271;29;20461;-85
2021/03/16 05:56:10;;;;;;;7.03;3.47;;;5.20;99.90;;;;;;4959739;23;20577;-86
2021/03/16 05:58:36;;;;;;;8.87;4.10;;;5.30;99.90;;;;;;4947556;29;20453;-88
2021/03/16 06:01:02;;;;;;;6.93;3.00;;;5.30;99.90;;;;;;4945556;29;20489;-83
2021/03/16 06:03:29;;;;;;;6.00;3.07;;;5.30;99.90;;;;;;4942669;29;20444;-84
2021/03/16 06:05:55;;;;;;;6.37;2.47;;;5.30;99.90;;;;;;4943055;29;20459;-83
2021/03/16 06:08:24;;;;;;;6.90;4.17;;;5.30;99.90;;;;;;4950144;23;20493;-87
2021/03/16 06:10:59;;;;;;;4.90;3.03;;;5.40;99.90;;;;;;4949612;29;20984;-86
2021/03/16 06:13:33;;;;;;;8.13;3.40;;;5.50;99.90;;;;;;4952432;29;20424;-86
2021/03/16 06:16:17;;;;;;;3.77;2.27;;;5.40;99.90;;;;;;4954706;29;20927;-86
2021/03/16 06:21:42;;;;;;;7.63;3.10;;;5.50;99.90;;;;;;4962084;28;20488;-86
2021/03/16 06:24:19;;;;;;;7.27;3.10;;;5.60;99.90;;;;;;4955909;28;20471;-86
2021/03/16 06:30:00;;;;;;;6.50;3.20;;;5.70;99.90;;;;;;4958042;28;20967;-86
2021/03/16 06:32:41;;;;;;;9.00;3.97;;;5.70;99.90;;;;;;4960392;28;20527;-86
2021/03/16 06:35:29;;;;;;;5.97;3.03;;;5.80;99.90;;;;;;4964954;28;20504;-86
2021/03/16 06:38:11;;;;;;;9.37;3.33;;;5.80;99.90;;;;;;4964208;28;20461;-87
2021/03/16 06:40:47;;;;;;;5.67;3.20;;;5.90;99.90;;;;;;4961397;29;20705;-86
2021/03/16 06:43:36;;;;;;;10.47;3.77;;;5.80;99.90;;;;;;4960474;28;20452;-86
2021/03/16 06:46:13;;;;;;;9.43;3.50;;;5.90;99.90;;;;;;4957780;28;20426;-85
2021/03/16 06:48:42;;;;;;;7.80;3.50;;;5.90;99.90;;;;;;4959214;28;20465;-86
2021/03/16 06:51:28;;;;;;;8.80;3.40;;;5.90;99.90;;;;;;4958810;28;20441;-86
2021/03/16 06:54:36;;;;;;;6.23;3.53;;;6.00;99.90;;;;;;4959713;28;20453;-87
2021/03/16 07:01:27;;;;;;;6.30;3.20;;;6.00;99.90;;;;;;4920771;28;20469;-87
2021/03/16 07:04:00;;;;;;;5.80;3.40;;;6.00;99.90;;;;;;4958218;28;20827;-87
2021/03/16 07:06:51;;;;;;;8.83;2.87;;;6.00;99.90;;;;;;4947519;28;20472;-86
2021/03/16 07:09:30;;;;;;;7.10;4.40;;;6.00;99.90;;;;;;4952786;28;20794;-87
2021/03/16 07:12:04;;;;;;;4.63;2.77;;;5.90;99.90;;;;;;4965259;28;20445;-87
2021/03/16 07:14:39;;;;;;;7.33;3.70;;;5.80;99.90;;;;;;4959336;28;20457;-86
2021/03/16 07:17:12;;;;;;;10.73;4.60;;;5.80;99.90;;;;;;4961685;28;20453;-86
2021/03/16 07:19:57;;;;;;;8.47;3.10;;;5.80;99.90;;;;;;4966539;28;20465;-87
2021/03/16 07:22:56;;;;;;;8.33;3.57;;;5.70;99.90;;;;;;4955372;28;20524;-86
2021/03/16 07:25:31;;;;;;;6.70;3.57;;;5.60;99.90;;;;;;4957049;28;20662;-87
2021/03/16 07:28:10;;;;;;;6.17;4.30;;;5.60;99.90;;;;;;4972296;28;20468;-86
2021/03/16 07:30:40;;;;;;;9.67;3.43;;;5.60;99.90;;;;;;4974351;28;20437;-87
2021/03/16 07:33:09;;;;;;;13.33;6.37;;;5.60;99.90;;;;;;4955058;28;20437;-86
2021/03/16 07:36:09;;;;;;;8.00;3.30;;;5.50;99.90;;;;;;4959354;28;20439;-83
2021/03/16 07:38:39;;;;;;;8.83;3.87;;;5.50;99.90;;;;;;4967949;28;20463;-82
2021/03/16 07:41:06;;;;;;;8.90;4.67;;;5.50;99.90;;;;;;4966833;28;20481;-82
2021/03/16 07:43:34;;;;;;;9.57;5.20;;;5.40;99.90;;;;;;4962839;28;20459;-81
2021/03/16 07:46:08;;;;;;;10.20;4.60;;;5.40;99.90;;;;;;4959829;28;20467;-83
2021/03/16 07:48:34;;;;;;;11.23;4.30;;;5.50;99.90;;;;;;4962322;28;20483;-81
2021/03/16 07:51:09;;;;;;;9.60;4.33;;;5.60;99.90;;;;;;4958206;29;20449;-85
2021/03/16 07:53:37;;;;;;;10.30;3.97;;;5.80;99.90;;;;;;4952243;29;20999;-84
2021/03/16 07:56:08;;;;;;;12.10;4.30;;;5.90;99.90;;;;;;4941200;29;20457;-85
2021/03/16 07:58:45;;;;;;;15.13;4.47;;;6.20;99.90;;;;;;4937479;29;20933;-84
2021/03/16 08:01:12;;;;;;;9.73;4.30;;;6.50;99.90;;;;;;4936779;29;20490;-84
2021/03/16 08:03:41;;;;;;;9.57;4.67;;;6.70;99.90;;;;;;4936935;29;20465;-84
2021/03/16 08:06:08;;;;;;;7.70;4.50;;;6.80;99.90;;;;;;4937351;29;20434;-86
2021/03/16 08:08:41;;;;;;;7.83;4.10;;;6.90;99.90;;;;;;4952822;29;20465;-84
2021/03/16 08:11:11;;;;;;;14.10;5.13;;;6.80;99.90;;;;;;4958075;28;20450;-85
2021/03/16 08:13:39;;;;;;;8.23;4.50;;;6.80;99.90;;;;;;4940545;29;20445;-85
2021/03/16 08:16:15;;;;;;;5.77;4.50;;;6.80;99.90;;;;;;4946828;23;20577;-85
2021/03/16 08:19:14;;;;;;;;;;;;;;;;;;;;;
2021/03/16 08:25:56;;;;;;;6.50;3.67;;;6.80;99.90;;;;;;4935109;29;20466;-84
2021/03/16 08:31:39;;;;;;;;;;;;;;;;;;;;;
2021/03/16 08:37:56;;;;;;;8.17;3.10;;;6.60;99.90;;;;;;4940688;29;20500;-85
2021/03/16 08:43:47;;;;;;;;;;;;;;;;;;;;;
2021/03/16 08:46:46;;;;;;;8.00;3.43;;;6.70;99.90;;;;;;4943673;29;20468;-85
2021/03/16 08:49:24;;;;;;;9.80;4.23;;;7.00;99.90;;;;;;4928032;29;20462;-85
2021/03/16 08:55:25;;;;;;;9.00;4.90;;;7.60;98.80;;;;;;4942850;29;20548;-85
2021/03/16 08:58:28;;;;;;;7.70;3.70;;;7.70;98.00;;;;;;4947597;29;20442;-85
2021/03/16 09:01:03;;;;;;;10.10;3.63;;;7.80;97.90;;;;;;4939033;29;20473;-84
2021/03/16 09:03:48;;;;;;;8.93;3.47;;;8.10;97.30;;;;;;4945800;29;20581;-84
2021/03/16 09:06:22;;;;;;;8.07;5.33;;;8.20;96.10;;;;;;4953454;29;20476;-86
2021/03/16 09:09:05;;;;;;;6.23;2.70;;;8.40;96.10;;;;;;4947907;29;20897;-86
2021/03/16 09:15:00;;;;;;;12.63;3.37;;;8.80;95.30;;;;;;4938753;23;20855;-86
2021/03/16 09:17:39;;;;;;;7.23;5.00;;;8.70;94.70;;;;;;4916098;29;20450;-87
2021/03/16 09:24:26;;;;;;;8.37;4.43;;;8.50;95.10;;;;;;4893470;29;20450;-87
2021/03/16 09:33:56;;;;;;;8.77;4.70;;;8.40;95.50;;;;;;4817350;29;20477;-87
2021/03/16 09:41:15;;;;;;;5.80;3.43;;;8.40;95.80;;;;;;4865374;29;20539;-86
2021/03/16 09:44:08;;;;;;;6.60;3.53;;;8.50;95.60;;;;;;4846498;29;20538;-86
2021/03/16 09:50:42;;;;;;;6.77;3.40;;;8.60;95.60;;;;;;4872697;29;20504;-86
2021/03/16 10:00:55;;;;;;;12.57;4.60;;;8.00;96.10;;;;;;4817154;29;20462;-87
2021/03/16 10:10:45;;;;;;;6.10;4.00;;;7.60;97.80;;;;;;4733461;29;20450;-86
2021/03/16 10:27:07;;;;;;;8.27;4.50;;;8.50;97.10;;;;;;4826641;29;20439;-91
2021/03/16 10:39:38;;;;;;;8.37;4.30;;;9.40;94.80;;;;;;4988007;23;20492;-86
2021/03/16 11:03:47;;;;;;;7.07;3.50;;;10.60;88.90;;;;;;4844119;29;21110;-86
2021/03/16 11:06:36;;;;;;;5.93;4.47;;;10.60;88.60;;;;;;4877814;29;20435;-85
2021/03/16 11:09:20;;;;;;;;;;;;;;;;;;;;;
2021/03/16 11:11:52;;;;;;;5.30;4.10;;;10.60;85.40;;;;;;4920252;29;20545;-85
2021/03/16 11:14:41;;;;;;;9.67;4.13;;;10.30;84.80;;;;;;4921423;29;20991;-86
2021/03/16 11:17:18;;;;;;;8.87;4.70;;;10.20;86.10;;;;;;4920980;29;20446;-85
2021/03/16 11:19:53;;;;;;;8.70;4.53;;;10.00;87.10;;;;;;4921225;29;20455;-86
2021/03/16 11:22:46;;;;;;;9.53;4.60;;;10.10;87.40;;;;;;4926108;29;20473;-85
2021/03/16 11:25:29;;;;;;;12.97;4.40;;;10.00;86.80;;;;;;4940625;29;20463;-85
2021/03/16 11:28:15;;;;;;;9.17;4.37;;;9.70;87.70;;;;;;4939136;29;20450;-85
2021/03/16 11:31:09;;;;;;;11.10;5.37;;;9.70;88.40;;;;;;4937325;29;20443;-84
2021/03/16 11:33:37;;;;;;;11.17;4.50;;;9.60;88.80;;;;;;4940340;29;20462;-84
2021/03/16 11:36:16;;;;;;;8.73;4.40;;;9.50;88.60;;;;;;4940951;29;20447;-84
2021/03/16 11:41:36;;;;;;;8.07;5.40;;;9.50;88.60;;;;;;4940715;29;20478;-84
2021/03/16 11:44:12;;;;;;;6.70;4.50;;;9.30;87.50;;;;;;4940910;29;20450;-84
2021/03/16 11:46:44;;;;;;;6.43;4.00;;;9.10;88.50;;;;;;4940035;29;20497;-84
2021/03/16 11:49:27;;;;;;;7.70;4.73;;;9.00;89.80;;;;;;4940605;29;20486;-84
2021/03/16 11:52:07;;;;;;;7.10;4.10;;;8.80;90.00;;;;;;4940225;29;20482;-84
2021/03/16 11:54:48;;;;;;;9.97;4.60;;;8.50;91.20;;;;;;4940752;29;20427;-84
2021/03/16 11:57:38;;;;;;;6.13;3.87;;;8.20;92.90;;;;;;4926622;29;20459;-85
2021/03/16 12:00:28;;;;;;;9.90;4.10;;;7.90;93.90;;;;;;4922584;29;20443;-85
2021/03/16 12:02:59;;;;;;;8.00;4.53;;;7.80;95.10;;;;;;4922828;29;20538;-85
2021/03/16 12:08:24;;;;;;;10.07;4.50;;;8.00;95.10;;;;;;4921295;29;20781;-85
2021/03/16 12:10:53;;;;;;;7.20;4.27;;;8.00;94.40;;;;;;4920320;29;20987;-84
2021/03/16 12:13:30;;;;;;;7.93;4.10;;;8.10;94.00;;;;;;4918355;29;20486;-84
2021/03/16 12:16:02;;;;;;;10.23;4.20;;;8.10;94.00;;;;;;4918751;29;20462;-84
2021/03/16 12:18:37;;;;;;;11.67;4.30;;;8.20;92.70;;;;;;4922801;29;20501;-84
2021/03/16 12:21:13;;;;;;;6.97;4.27;;;8.40;93.00;;;;;;4920604;29;20881;-85
2021/03/16 12:23:46;;;;;;;11.03;3.73;;;8.60;92.80;;;;;;4921202;29;20501;-85
2021/03/16 12:26:12;;;;;;;6.10;3.50;;;8.80;92.20;;;;;;4919699;29;20982;-85
2021/03/16 12:28:39;;;;;;;6.13;4.00;;;9.10;92.10;;;;;;4920579;29;20459;-84
2021/03/16 12:31:05;;;;;;;6.90;4.23;;;9.40;91.20;;;;;;4929660;29;20517;-83
2021/03/16 12:33:34;;;;;;;9.67;4.00;;;9.60;90.30;;;;;;4940411;29;20463;-83
2021/03/16 12:36:01;;;;;;;8.37;3.60;;;10.00;88.70;;;;;;4940098;29;20450;-83
2021/03/16 12:38:27;;;;;;;8.23;3.37;;;10.40;86.60;;;;;;4940626;29;20447;-83
2021/03/16 12:40:58;;;;;;;6.60;4.90;;;10.40;83.80;;;;;;4940129;29;20553;-83
2021/03/16 12:43:34;;;;;;;5.70;2.93;;;10.40;82.90;;;;;;4939991;29;20479;-83
2021/03/16 12:46:09;;;;;;;6.23;3.17;;;10.20;83.80;;;;;;4940301;29;20450;-83
2021/03/16 12:48:42;;;;;;;6.87;4.30;;;10.00;83.20;;;;;;4939930;29;20457;-84
2021/03/16 12:51:21;;;;;;;6.33;3.30;;;9.70;83.10;;;;;;4939903;29;20466;-84
2021/03/16 12:53:56;;;;;;;6.00;3.30;;;9.40;81.90;;;;;;4939174;29;20470;-84
2021/03/16 12:56:26;;;;;;;5.30;3.43;;;9.30;82.90;;;;;;4931365;29;20438;-84
2021/03/16 12:58:53;;;;;;;5.10;4.10;;;9.20;83.20;;;;;;4921241;29;20455;-85
2021/03/16 13:01:21;;;;;;;7.93;3.90;;;9.20;83.40;;;;;;4918971;29;20856;-85
2021/03/16 13:03:50;;;;;;;6.83;3.70;;;9.10;83.30;;;;;;4918521;29;20549;-85
2021/03/16 13:06:17;;;;;;;5.63;3.90;;;9.20;83.50;;;;;;4917247;29;20455;-85
2021/03/16 13:08:46;;;;;;;12.53;3.87;;;9.40;84.30;;;;;;4917833;29;20482;-85
2021/03/16 13:11:15;;;;;;;5.63;4.50;;;9.50;83.40;;;;;;4918064;29;20497;-84
2021/03/16 13:13:43;;;;;;;10.83;3.57;;;9.60;83.20;;;;;;4918886;29;20458;-85
2021/03/16 13:16:09;;;;;;;6.57;4.00;;;9.70;81.70;;;;;;4918639;29;20490;-85
2021/03/16 13:18:38;;;;;;;9.20;3.80;;;9.80;80.60;;;;;;4918434;29;20521;-84
2021/03/16 13:21:05;;;;;;;8.00;4.10;;;9.90;79.40;;;;;;4918219;29;20486;-85
2021/03/16 13:23:31;;;;;;;9.77;4.60;;;9.90;80.20;;;;;;4921992;29;20439;-85
2021/03/16 13:25:58;;;;;;;8.50;3.90;;;10.00;78.50;;;;;;4935518;29;20466;-85
2021/03/16 13:28:29;;;;;;;7.73;3.43;;;10.00;76.50;;;;;;4921708;29;20447;-85
2021/03/16 13:30:56;;;;;;;5.17;3.40;;;10.00;75.10;;;;;;4922465;29;20502;-85
2021/03/16 13:33:25;;;;;;;7.50;3.30;;;10.10;75.10;;;;;;4933815;29;20449;-84
2021/03/16 13:35:54;;;;;;;4.87;3.43;;;10.20;74.50;;;;;;4938542;29;20506;-85
2021/03/16 13:38:21;;;;;;;7.90;4.10;;;10.50;74.90;;;;;;4928078;29;20451;-85
2021/03/16 13:40:47;;;;;;;11.03;5.67;;;10.70;74.30;;;;;;4925626;29;20475;-85
2021/03/16 13:43:14;;;;;;;7.23;3.23;;;10.70;73.20;;;;;;4923483;29;20598;-85
2021/03/16 13:45:40;;;;;;;7.00;4.10;;;10.70;72.90;;;;;;4928294;29;20446;-85
2021/03/16 13:48:08;;;;;;;6.50;3.17;;;10.90;73.30;;;;;;4942328;29;20475;-85
2021/03/16 13:50:34;;;;;;;5.07;3.30;;;10.80;70.70;;;;;;4933438;29;20467;-85
2021/03/16 13:53:01;;;;;;;5.77;2.73;;;10.80;71.40;;;;;;4941380;29;20446;-84
2021/03/16 13:55:27;;;;;;;5.47;3.00;;;10.90;71.20;;;;;;4931920;29;20446;-84
2021/03/16 13:57:53;;;;;;;8.70;3.40;;;10.90;70.40;;;;;;4940242;29;20455;-84
2021/03/16 14:00:20;;;;;;;9.03;2.67;;;10.90;70.40;;;;;;4925202;29;20481;-84
2021/03/16 14:02:46;;;;;;;5.27;2.60;;;10.90;70.80;;;;;;4934110;29;20510;-84
2021/03/16 14:05:13;;;;;;;4.37;2.30;;;10.70;69.60;;;;;;4939599;29;20446;-84
2021/03/16 14:07:40;;;;;;;8.90;2.53;;;10.60;67.70;;;;;;4938965;29;20458;-85
2021/03/16 14:10:08;;;;;;;8.23;2.37;;;10.50;67.60;;;;;;4941636;29;20462;-84
2021/03/16 14:12:34;;;;;;;8.33;2.50;;;10.60;67.90;;;;;;4931003;29;20479;-85
2021/03/16 14:15:00;;;;;;;5.83;2.30;;;10.50;67.90;;;;;;4941898;29;20439;-84
2021/03/16 14:17:27;;;;;;;6.53;2.13;;;10.50;67.90;;;;;;4934583;29;20480;-83
2021/03/16 14:19:54;;;;;;;3.70;2.20;;;10.30;67.80;;;;;;4936599;29;20462;-84
2021/03/16 14:22:22;;;;;;;11.90;5.30;;;10.20;68.10;;;;;;4923695;29;20486;-85
2021/03/16 14:24:49;;;;;;;6.43;4.23;;;10.10;68.40;;;;;;4922928;29;20525;-85
2021/03/16 14:27:15;;;;;;;4.57;2.43;;;10.20;67.80;;;;;;4923577;29;20533;-84
2021/03/16 14:29:42;;;;;;;9.10;2.07;;;10.50;67.10;;;;;;4922310;29;20454;-85
2021/03/16 14:32:08;;;;;;;3.63;1.90;;;10.70;66.90;;;;;;4920598;29;20546;-85
2021/03/16 14:34:35;;;;;;;6.27;2.27;;;11.00;66.70;;;;;;4922974;29;20466;-84
2021/03/16 14:37:01;;;;;;;2.80;1.60;;;11.10;65.20;;;;;;4922507;29;20463;-84
2021/03/16 14:39:29;;;;;;;4.07;2.30;;;11.20;64.60;;;;;;4923533;29;20503;-84
2021/03/16 14:41:55;;;;;;;4.83;2.47;;;11.40;64.40;;;;;;4922352;29;20492;-84
2021/03/16 14:44:22;;;;;;;4.33;2.27;;;11.50;63.60;;;;;;4928500;29;20983;-84
2021/03/16 14:46:48;;;;;;;3.40;1.83;;;11.70;63.40;;;;;;4932396;29;20438;-83
2021/03/16 14:49:15;;;;;;;7.30;2.27;;;11.70;62.20;;;;;;4926977;29;20484;-84
2021/03/16 14:51:41;;;;;;;3.80;2.00;;;11.60;62.60;;;;;;4921077;29;20517;-84
2021/03/16 14:54:08;;;;;;;5.23;2.00;;;11.40;63.10;;;;;;4920311;29;20459;-84
2021/03/16 14:56:35;;;;;;;6.07;2.50;;;11.40;63.70;;;;;;4922665;29;20459;-84
2021/03/16 14:59:02;;;;;;;5.13;1.90;;;11.20;63.40;;;;;;4924475;29;20473;-85
2021/03/16 15:01:29;;;;;;;4.27;2.10;;;10.80;63.90;;;;;;4925966;29;20478;-85
2021/03/16 15:03:55;;;;;;;4.30;2.13;;;10.60;64.60;;;;;;4924898;29;20537;-85
2021/03/16 15:06:22;;;;;;;4.97;2.30;;;10.60;64.60;;;;;;4921144;29;20502;-85
2021/03/16 15:08:48;;;;;;;4.10;2.23;;;10.50;65.20;;;;;;4919137;29;21055;-85
2021/03/16 15:11:15;;;;;;;3.00;2.40;;;10.50;65.70;;;;;;4920031;29;20482;-85
2021/03/16 15:13:43;;;;;;;7.77;3.40;;;10.50;66.90;;;;;;4929967;29;20510;-85
2021/03/16 15:16:09;;;;;;;5.43;2.07;;;10.40;66.70;;;;;;4931274;29;20542;-85
2021/03/16 15:18:35;;;;;;;4.67;2.10;;;10.20;67.10;;;;;;4921864;29;20455;-85
2021/03/16 15:21:02;;;;;;;5.93;3.10;;;10.10;67.90;;;;;;4921015;29;20455;-85
2021/03/16 15:23:28;;;;;;;13.90;3.30;;;10.10;67.40;;;;;;4931960;29;20443;-83
2021/03/16 15:25:57;;;;;;;6.23;3.40;;;10.10;67.80;;;;;;4935385;29;20510;-85
2021/03/16 15:28:23;;;;;;;5.60;2.30;;;10.20;68.10;;;;;;4924028;29;20458;-84